Time;durP1;ratioP1;P1;durP2;ratioP2;P2;SDS_P1;SDS_P2;PMS_P1;PMS_P2;Temp;Humidity;BMP_temperature;BMP_pressure;BME280_temperature;BME280_humidity;BME280_pressure;Samples;Min_cycle;Max_cycle;Signal;HPM_P1;HPM_P2
2022/05/02 00:02:11;;;;;;;;;;;;;;;;;;4994881;28;136310;-65
2022/05/02 00:04:38;;;;;;;;;;;;;;;;;;4996396;28;123940;-64
2022/05/02 00:07:04;;;;;;;;;;;;;;;;;;5006931;28;137390;-65
2022/05/02 00:09:31;;;;;;;;;;;;;;;;;;4996525;28;135842;-64
2022/05/02 00:11:58;;;;;;;;;;;;;;;;;;5000756;28;129537;-65
2022/05/02 00:14:24;;;;;;;;;;;;;;;;;;4988692;28;134865;-65
2022/05/02 00:16:50;;;;;;;;;;;;;;;;;;5002258;27;135778;-65
2022/05/02 00:19:17;;;;;;;;;;;;;;;;;;5000855;28;128455;-66
2022/05/02 00:21:43;;;;;;;;;;;;;;;;;;5005242;27;130539;-65
2022/05/02 00:24:09;;;;;;;;;;;;;;;;;;5001353;28;111771;-65
2022/05/02 00:26:36;;;;;;;;;;;;;;;;;;5008615;28;136557;-65
2022/05/02 00:29:02;;;;;;;;;;;;;;;;;;4999087;27;138185;-65
2022/05/02 00:31:28;;;;;;;;;;;;;;;;;;5006466;28;120163;-65
2022/05/02 00:33:55;;;;;;;;;;;;;;;;;;5000150;27;135526;-65
2022/05/02 00:36:21;;;;;;;;;;;;;;;;;;4995513;28;137608;-65
2022/05/02 00:38:47;;;;;;;;;;;;;;;;;;5011251;28;127365;-65
2022/05/02 00:41:13;;;;;;;;;;;;;;;;;;5001539;28;135215;-65
2022/05/02 00:43:40;;;;;;;;;;;;;;;;;;5002801;28;129043;-65
2022/05/02 00:46:06;;;;;;;;;;;;;;;;;;4995613;28;136502;-64
2022/05/02 00:48:32;;;;;;;;;;;;;;;;;;5005687;28;137520;-65
2022/05/02 00:50:59;;;;;;;;;;;;;;;;;;4989182;28;129002;-65
2022/05/02 00:53:25;;;;;;;;;;;;;;;;;;4994830;28;134141;-65
2022/05/02 00:55:51;;;;;;;;;;;;;;;;;;5004596;28;137968;-66
2022/05/02 00:58:18;;;;;;;;;;;;;;;;;;4991081;28;128619;-66
2022/05/02 01:00:44;;;;;;;;;;;;;;;;;;5003448;28;122084;-66
2022/05/02 01:03:10;;;;;;;;;;;;;;;;;;5006607;28;129066;-66
2022/05/02 01:07:08;;;;;;;;;;;;;;;;;;5007651;28;135416;-66
2022/05/02 01:08:23;;;;;;;;;;;;;;;;;;4996085;27;135168;-66
2022/05/02 01:10:49;;;;;;;;;;;;;;;;;;5007551;28;129844;-66
2022/05/02 01:13:16;;;;;;;;;;;;;;;;;;5000703;22;136124;-64
2022/05/02 01:15:42;;;;;;;;;;;;;;;;;;4988093;28;133892;-64
2022/05/02 01:18:08;;;;;;;;;;;;;;;;;;4977509;28;129250;-62
2022/05/02 01:20:34;;;;;;;;;;;;;;;;;;4986071;28;135158;-63
2022/05/02 01:23:01;;;;;;;;;;;;;;;;;;4981655;28;136947;-62
2022/05/02 01:25:27;;;;;;;;;;;;;;;;;;4986704;28;135894;-63
2022/05/02 01:27:53;;;;;;;;;;;;;;;;;;4984224;28;134288;-63
2022/05/02 01:30:19;;;;;;;;;;;;;;;;;;4984751;28;127819;-63
2022/05/02 01:32:46;;;;;;;;;;;;;;;;;;4985673;28;114867;-63
2022/05/02 01:35:12;;;;;;;;;;;;;;;;;;4982735;28;137931;-63
2022/05/02 01:37:38;;;;;;;;;;;;;;;;;;4986221;28;129136;-63
2022/05/02 01:40:05;;;;;;;;;;;;;;;;;;4977566;28;135315;-64
2022/05/02 01:42:31;;;;;;;;;;;;;;;;;;4979658;28;107301;-63
2022/05/02 01:44:57;;;;;;;;;;;;;;;;;;4992353;28;106252;-63
2022/05/02 01:47:23;;;;;;;;;;;;;;;;;;4984781;28;137642;-62
2022/05/02 01:49:50;;;;;;;;;;;;;;;;;;4977920;28;129277;-63
2022/05/02 01:52:16;;;;;;;;;;;;;;;;;;4988160;28;106889;-64
2022/05/02 01:54:42;;;;;;;;;;;;;;;;;;4985321;28;136196;-63
2022/05/02 01:57:09;;;;;;;;;;;;;;;;;;4984784;28;129486;-63
2022/05/02 01:59:35;;;;;;;;;;;;;;;;;;4988235;28;137937;-64
2022/05/02 02:02:01;;;;;;;;;;;;;;;;;;4980602;28;137093;-63
2022/05/02 02:07:14;;;;;;;;;;;;;;;;;;4989737;28;136028;-63
2022/05/02 02:09:40;;;;;;;;;;;;;;;;;;4974204;28;130074;-63
2022/05/02 02:12:07;;;;;;;;;;;;;;;;;;4978316;28;136207;-63
2022/05/02 02:14:33;;;;;;;;;;;;;;;;;;4969484;28;134255;-62
2022/05/02 02:16:59;;;;;;;;;;;;;;;;;;4989268;28;105875;-62
2022/05/02 02:19:25;;;;;;;;;;;;;;;;;;4983421;28;135717;-63
2022/05/02 02:21:52;;;;;;;;;;;;;;;;;;4979144;28;114947;-62
2022/05/02 02:24:18;;;;;;;;;;;;;;;;;;4979047;28;130165;-61
2022/05/02 02:26:44;;;;;;;;;;;;;;;;;;4981763;28;137639;-62
2022/05/02 02:29:11;;;;;;;;;;;;;;;;;;4984151;28;107681;-62
2022/05/02 02:31:37;;;;;;;;;;;;;;;;;;4980664;28;136557;-62
2022/05/02 02:34:03;;;;;;;;;;;;;;;;;;4980650;28;122122;-63
2022/05/02 02:36:30;;;;;;;;;;;;;;;;;;4986590;28;126478;-62
2022/05/02 02:38:56;;;;;;;;;;;;;;;;;;4981776;28;127075;-62
2022/05/02 02:41:22;;;;;;;;;;;;;;;;;;4971890;28;135751;-63
2022/05/02 02:43:49;;;;;;;;;;;;;;;;;;4980436;28;115535;-61
2022/05/02 02:46:16;;;;;;;;;;;;;;;;;;4982343;28;134346;-62
2022/05/02 02:48:42;;;;;;;;;;;;;;;;;;4990131;28;136804;-62
2022/05/02 02:51:08;;;;;;;;;;;;;;;;;;4978673;28;136621;-62
2022/05/02 02:53:35;;;;;;;;;;;;;;;;;;4973249;28;108061;-63
2022/05/02 02:56:01;;;;;;;;;;;;;;;;;;4976439;28;105824;-63
2022/05/02 02:58:27;;;;;;;;;;;;;;;;;;4974617;28;135714;-62
2022/05/02 03:00:54;;;;;;;;;;;;;;;;;;4974264;28;106815;-62
2022/05/02 03:03:20;;;;;;;;;;;;;;;;;;4974502;28;128619;-62
2022/05/02 03:06:02;;;;;;;;;;;;;;;;;;4985457;28;107209;-62
2022/05/02 03:08:28;;;;;;;;;;;;;;;;;;4971257;28;138370;-63
2022/05/02 03:10:55;;;;;;;;;;;;;;;;;;4971152;28;129181;-63
2022/05/02 03:13:21;;;;;;;;;;;;;;;;;;4973535;28;132412;-64
2022/05/02 03:15:48;;;;;;;;;;;;;;;;;;4974026;28;107584;-62
2022/05/02 03:18:14;;;;;;;;;;;;;;;;;;4967544;28;136433;-63
2022/05/02 03:20:40;;;;;;;;;;;;;;;;;;4966276;28;132238;-63
2022/05/02 03:23:06;;;;;;;;;;;;;;;;;;4974140;28;116107;-63
2022/05/02 03:25:33;;;;;;;;;;;;;;;;;;4982365;28;134081;-63
2022/05/02 03:27:59;;;;;;;;;;;;;;;;;;4980931;28;138020;-63
2022/05/02 03:30:25;;;;;;;;;;;;;;;;;;4978700;28;127313;-63
2022/05/02 03:32:51;;;;;;;;;;;;;;;;;;4983467;28;136592;-62
2022/05/02 03:35:18;;;;;;;;;;;;;;;;;;4988403;28;128423;-63
2022/05/02 03:37:44;;;;;;;;;;;;;;;;;;4986633;28;137268;-63
2022/05/02 03:40:10;;;;;;;;;;;;;;;;;;4978594;28;137932;-63
2022/05/02 03:42:37;;;;;;;;;;;;;;;;;;4984148;28;106054;-63
2022/05/02 03:45:04;;;;;;;;;;;;;;;;;;4980972;28;135249;-64
2022/05/02 03:47:30;;;;;;;;;;;;;;;;;;4977732;28;137786;-63
2022/05/02 03:49:56;;;;;;;;;;;;;;;;;;4981495;28;129224;-63
2022/05/02 03:52:22;;;;;;;;;;;;;;;;;;4972195;28;135568;-63
2022/05/02 03:54:49;;;;;;;;;;;;;;;;;;4985951;28;135901;-63
2022/05/02 03:57:15;;;;;;;;;;;;;;;;;;4984461;28;134556;-63
2022/05/02 03:59:42;;;;;;;;;;;;;;;;;;4983905;28;127619;-63
2022/05/02 04:02:08;;;;;;;;;;;;;;;;;;4982691;28;129081;-63
2022/05/02 04:04:35;;;;;;;;;;;;;;;;;;4982424;28;134331;-63
2022/05/02 04:07:01;;;;;;;;;;;;;;;;;;4979880;28;107224;-63
2022/05/02 04:09:27;;;;;;;;;;;;;;;;;;4988182;28;127973;-63
2022/05/02 04:11:54;;;;;;;;;;;;;;;;;;4978685;28;111044;-63
2022/05/02 04:14:20;;;;;;;;;;;;;;;;;;4987676;28;137740;-62
2022/05/02 04:16:46;;;;;;;;;;;;;;;;;;4980786;28;106624;-63
2022/05/02 04:19:13;;;;;;;;;;;;;;;;;;4988449;28;127009;-63
2022/05/02 04:21:39;;;;;;;;;;;;;;;;;;4984042;28;106153;-62
2022/05/02 04:24:05;;;;;;;;;;;;;;;;;;4981907;28;136388;-62
2022/05/02 04:26:32;;;;;;;;;;;;;;;;;;4988938;28;137989;-65
2022/05/02 04:28:58;;;;;;;;;;;;;;;;;;4984660;28;128255;-62
2022/05/02 04:31:24;;;;;;;;;;;;;;;;;;4987045;28;137644;-62
2022/05/02 04:33:51;;;;;;;;;;;;;;;;;;4986060;28;129644;-62
2022/05/02 04:36:17;;;;;;;;;;;;;;;;;;4990148;28;114270;-62
2022/05/02 04:38:44;;;;;;;;;;;;;;;;;;4988554;28;138080;-63
2022/05/02 04:41:14;;;;;;;;;;;;;;;;;;4987636;28;129416;-63
2022/05/02 04:43:41;;;;;;;;;;;;;;;;;;4986054;28;137080;-63
2022/05/02 04:46:07;;;;;;;;;;;;;;;;;;4983124;28;132250;-63
2022/05/02 04:48:33;;;;;;;;;;;;;;;;;;4984955;28;129853;-64
2022/05/02 04:51:00;;;;;;;;;;;;;;;;;;4983833;28;128411;-63
2022/05/02 04:53:26;;;;;;;;;;;;;;;;;;4986667;28;129512;-63
2022/05/02 04:55:52;;;;;;;;;;;;;;;;;;4983407;28;129243;-62
2022/05/02 04:58:19;;;;;;;;;;;;;;;;;;4988374;28;125826;-63
2022/05/02 05:00:45;;;;;;;;;;;;;;;;;;4984719;28;130960;-63
2022/05/02 05:03:11;;;;;;;;;;;;;;;;;;4987734;28;122027;-63
2022/05/02 05:05:38;;;;;;;;;;;;;;;;;;4983643;28;137841;-63
2022/05/02 05:08:04;;;;;;;;;;;;;;;;;;4984063;28;128603;-65
2022/05/02 05:10:30;;;;;;;;;;;;;;;;;;4984622;28;135317;-62
2022/05/02 05:12:57;;;;;;;;;;;;;;;;;;4983953;28;136319;-64
2022/05/02 05:18:08;;;;;;;;;;;;;;;;;;4988148;28;124621;-63
2022/05/02 05:20:35;;;;;;;;;;;;;;;;;;4992954;28;111732;-64
2022/05/02 05:23:01;;;;;;;;;;;;;;;;;;4979928;28;136588;-63
2022/05/02 05:25:27;;;;;;;;;;;;;;;;;;4980717;28;113743;-63
2022/05/02 05:27:53;;;;;;;;;;;;;;;;;;4968106;28;129984;-63
2022/05/02 05:30:21;;;;;;;;;;;;;;;;;;4971741;28;135934;-63
2022/05/02 05:32:47;;;;;;;;;;;;;;;;;;4976951;28;131585;-63
2022/05/02 05:35:13;;;;;;;;;;;;;;;;;;4967847;28;128080;-63
2022/05/02 05:37:39;;;;;;;;;;;;;;;;;;4976096;28;135818;-63
2022/05/02 05:40:06;;;;;;;;;;;;;;;;;;4983020;28;135707;-63
2022/05/02 05:42:32;;;;;;;;;;;;;;;;;;4982572;28;127767;-63
2022/05/02 05:44:59;;;;;;;;;;;;;;;;;;4971776;28;114121;-63
2022/05/02 05:47:25;;;;;;;;;;;;;;;;;;4980703;28;130749;-63
2022/05/02 05:49:51;;;;;;;;;;;;;;;;;;4982227;28;133205;-63
2022/05/02 05:52:18;;;;;;;;;;;;;;;;;;4980668;28;125989;-63
2022/05/02 05:54:44;;;;;;;;;;;;;;;;;;4981360;28;130164;-63
2022/05/02 05:57:10;;;;;;;;;;;;;;;;;;4983632;28;118989;-63
2022/05/02 05:59:37;;;;;;;;;;;;;;;;;;4975280;28;133803;-63
2022/05/02 06:02:05;;;;;;;;;;;;;;;;;;4975388;28;106781;-64
2022/05/02 06:04:32;;;;;;;;;;;;;;;;;;4981799;28;111131;-63
2022/05/02 06:06:58;;;;;;;;;;;;;;;;;;4987059;28;129852;-63
2022/05/02 06:09:25;;;;;;;;;;;;;;;;;;4984796;28;135316;-63
2022/05/02 06:11:51;;;;;;;;;;;;;;;;;;4983807;28;127596;-63
2022/05/02 06:14:20;;;;;;;;;;;;;;;;;;4979203;28;128022;-63
2022/05/02 06:19:31;;;;;;;;;;;;;;;;;;4966689;28;138736;-63
2022/05/02 06:21:58;;;;;;;;;;;;;;;;;;4986906;28;126928;-62
2022/05/02 06:24:24;;;;;;;;;;;;;;;;;;4971925;28;120848;-63
2022/05/02 06:26:50;;;;;;;;;;;;;;;;;;4984545;28;134159;-64
2022/05/02 06:29:17;;;;;;;;;;;;;;;;;;4986911;28;137260;-64
2022/05/02 06:31:44;;;;;;;;;;;;;;;;;;4980307;28;136345;-64
2022/05/02 06:34:12;;;;;;;;;;;;;;;;;;4977804;28;106931;-64
2022/05/02 06:36:39;;;;;;;;;;;;;;;;;;4970385;28;126233;-64
2022/05/02 06:39:05;;;;;;;;;;;;;;;;;;4977903;28;137067;-64
2022/05/02 06:41:31;;;;;;;;;;;;;;;;;;4977449;28;116342;-64
2022/05/02 06:43:59;;;;;;;;;;;;;;;;;;4969287;28;107935;-64
2022/05/02 06:46:25;;;;;;;;;;;;;;;;;;4974727;28;120470;-64
2022/05/02 06:48:51;;;;;;;;;;;;;;;;;;4986657;28;134546;-64
2022/05/02 06:51:18;;;;;;;;;;;;;;;;;;4975915;28;136999;-64
2022/05/02 06:53:44;;;;;;;;;;;;;;;;;;4980438;28;129783;-64
2022/05/02 06:56:10;;;;;;;;;;;;;;;;;;4976067;28;134869;-64
2022/05/02 06:58:36;;;;;;;;;;;;;;;;;;4985228;28;137196;-64
2022/05/02 07:01:03;;;;;;;;;;;;;;;;;;4983183;28;106291;-63
2022/05/02 07:03:30;;;;;;;;;;;;;;;;;;4982103;28;136667;-64
2022/05/02 07:05:56;;;;;;;;;;;;;;;;;;4980771;28;136603;-64
2022/05/02 07:08:22;;;;;;;;;;;;;;;;;;4977781;28;129258;-64
2022/05/02 07:10:49;;;;;;;;;;;;;;;;;;4983123;28;136664;-63
2022/05/02 07:13:15;;;;;;;;;;;;;;;;;;4986329;28;127436;-64
2022/05/02 07:15:42;;;;;;;;;;;;;;;;;;4977121;28;137000;-64
2022/05/02 07:18:08;;;;;;;;;;;;;;;;;;4979352;28;133671;-64
2022/05/02 07:20:34;;;;;;;;;;;;;;;;;;4976517;28;129983;-64
2022/05/02 07:23:01;;;;;;;;;;;;;;;;;;4985234;28;130151;-64
2022/05/02 07:25:27;;;;;;;;;;;;;;;;;;4972469;28;132938;-64
2022/05/02 07:27:53;;;;;;;;;;;;;;;;;;4979463;28;128639;-64
2022/05/02 07:30:20;;;;;;;;;;;;;;;;;;4988227;28;121113;-64
2022/05/02 07:32:46;;;;;;;;;;;;;;;;;;4985173;28;118255;-64
2022/05/02 07:35:12;;;;;;;;;;;;;;;;;;4982816;28;137415;-64
2022/05/02 07:37:39;;;;;;;;;;;;;;;;;;4980559;28;137022;-63
2022/05/02 07:40:05;;;;;;;;;;;;;;;;;;4983577;28;128274;-65
2022/05/02 07:42:34;;;;;;;;;;;;;;;;;;4981350;28;128729;-65
2022/05/02 07:45:00;;;;;;;;;;;;;;;;;;4985240;28;107945;-64
2022/05/02 07:47:27;;;;;;;;;;;;;;;;;;4984920;28;116215;-64
2022/05/02 07:49:53;;;;;;;;;;;;;;;;;;4981588;28;129621;-64
2022/05/02 07:52:20;;;;;;;;;;;;;;;;;;4982472;28;106459;-64
2022/05/02 07:54:46;;;;;;;;;;;;;;;;;;4984462;28;132903;-63
2022/05/02 07:57:13;;;;;;;;;;;;;;;;;;4977508;28;137977;-63
2022/05/02 07:59:39;;;;;;;;;;;;;;;;;;4980646;28;127370;-64
2022/05/02 08:02:05;;;;;;;;;;;;;;;;;;4977610;28;133375;-64
2022/05/02 08:04:32;;;;;;;;;;;;;;;;;;4982651;28;136205;-64
2022/05/02 08:07:00;;;;;;;;;;;;;;;;;;4980060;28;130047;-65
2022/05/02 08:09:26;;;;;;;;;;;;;;;;;;4980131;28;135110;-63
2022/05/02 08:11:53;;;;;;;;;;;;;;;;;;4981799;28;136404;-63
2022/05/02 08:14:19;;;;;;;;;;;;;;;;;;4981004;28;114204;-65
2022/05/02 08:16:45;;;;;;;;;;;;;;;;;;4981591;28;135676;-63
2022/05/02 08:19:12;;;;;;;;;;;;;;;;;;4975708;28;131661;-63
2022/05/02 08:21:38;;;;;;;;;;;;;;;;;;4989714;28;130813;-64
2022/05/02 08:29:38;;;;;;;;;;;;;;;;;;4981495;28;131939;-63
2022/05/02 08:32:04;;;;;;;;;;;;;;;;;;4981460;28;134971;-65
2022/05/02 08:34:32;;;;;;;;;;;;;;;;;;4983357;28;128416;-64
2022/05/02 08:36:59;;;;;;;;;;;;;;;;;;4990874;28;137211;-64
2022/05/02 08:39:25;;;;;;;;;;;;;;;;;;4976850;28;128624;-64
2022/05/02 08:41:51;;;;;;;;;;;;;;;;;;4972228;28;135912;-64
2022/05/02 08:44:18;;;;;;;;;;;;;;;;;;4974193;28;140072;-64
2022/05/02 08:46:44;;;;;;;;;;;;;;;;;;4984652;28;129501;-63
2022/05/02 08:51:56;;;;;;;;;;;;;;;;;;4977300;28;137315;-63
2022/05/02 08:54:22;;;;;;;;;;;;;;;;;;4988036;28;106460;-64
2022/05/02 08:56:48;;;;;;;;;;;;;;;;;;4988538;28;133753;-64
2022/05/02 08:59:15;;;;;;;;;;;;;;;;;;4984704;28;123464;-66
2022/05/02 09:01:41;;;;;;;;;;;;;;;;;;4984926;28;136330;-66
2022/05/02 09:04:07;;;;;;;;;;;;;;;;;;4985454;28;136574;-67
2022/05/02 09:06:34;;;;;;;;;;;;;;;;;;4984308;28;116309;-64
2022/05/02 09:09:00;;;;;;;;;;;;;;;;;;4985941;28;136554;-64
2022/05/02 09:11:32;;;;;;;;;;;;;;;;;;4988740;28;136431;-64
2022/05/02 09:13:59;;;;;;;;;;;;;;;;;;4983169;28;129722;-64
2022/05/02 09:16:25;;;;;;;;;;;;;;;;;;4983249;28;133720;-64
2022/05/02 09:18:51;;;;;;;;;;;;;;;;;;4981272;28;129457;-64
2022/05/02 09:21:24;;;;;;;;;;;;;;;;;;4969459;28;131960;-64
2022/05/02 09:23:51;;;;;;;;;;;;;;;;;;4983139;28;115261;-64
2022/05/02 09:26:17;;;;;;;;;;;;;;;;;;4980203;28;129629;-64
2022/05/02 09:28:43;;;;;;;;;;;;;;;;;;4983977;28;135407;-64
2022/05/02 09:31:10;;;;;;;;;;;;;;;;;;4984777;28;137108;-64
2022/05/02 09:33:36;;;;;;;;;;;;;;;;;;4987410;28;127763;-64
2022/05/02 09:36:02;;;;;;;;;;;;;;;;;;4986914;28;107353;-64
2022/05/02 09:38:29;;;;;;;;;;;;;;;;;;4976804;28;107345;-64
2022/05/02 09:40:55;;;;;;;;;;;;;;;;;;4990383;28;129440;-66
2022/05/02 09:43:23;;;;;;;;;;;;;;;;;;4984191;28;107837;-66
2022/05/02 09:51:20;;;;;;;;;;;;;;;;;;4973366;28;135715;-64
2022/05/02 09:53:46;;;;;;;;;;;;;;;;;;4970936;28;129964;-65
2022/05/02 09:58:57;;;;;;;;;;;;;;;;;;4970509;28;119759;-64
2022/05/02 10:01:25;;;;;;;;;;;;;;;;;;4968516;28;114009;-65
2022/05/02 10:03:51;;;;;;;;;;;;;;;;;;4975407;28;130956;-64
2022/05/02 10:06:17;;;;;;;;;;;;;;;;;;4967237;28;128508;-65
2022/05/02 10:08:44;;;;;;;;;;;;;;;;;;4976491;28;134446;-64
2022/05/02 10:11:11;;;;;;;;;;;;;;;;;;4975949;28;136503;-64
2022/05/02 10:13:37;;;;;;;;;;;;;;;;;;4984218;28;128131;-65
2022/05/02 10:16:04;;;;;;;;;;;;;;;;;;4970233;28;135891;-63
2022/05/02 10:18:31;;;;;;;;;;;;;;;;;;4966016;28;110922;-65
2022/05/02 10:20:57;;;;;;;;;;;;;;;;;;4982860;28;112685;-65
2022/05/02 10:23:23;;;;;;;;;;;;;;;;;;4982521;28;123935;-65
2022/05/02 10:25:50;;;;;;;;;;;;;;;;;;4989245;28;127930;-66
2022/05/02 10:28:16;;;;;;;;;;;;;;;;;;4988252;28;108481;-65
2022/05/02 10:30:43;;;;;;;;;;;;;;;;;;4978530;28;128855;-65
2022/05/02 10:33:10;;;;;;;;;;;;;;;;;;4972585;28;106547;-66
2022/05/02 10:35:36;;;;;;;;;;;;;;;;;;4974337;28;136663;-66
2022/05/02 10:38:02;;;;;;;;;;;;;;;;;;4973837;28;135914;-65
2022/05/02 10:40:29;;;;;;;;;;;;;;;;;;4981160;28;106510;-66
2022/05/02 10:42:56;;;;;;;;;;;;;;;;;;4983580;28;116732;-66
2022/05/02 10:45:22;;;;;;;;;;;;;;;;;;4983336;28;136010;-65
2022/05/02 10:47:48;;;;;;;;;;;;;;;;;;4977001;28;128362;-65
2022/05/02 10:50:19;;;;;;;;;;;;;;;;;;4976129;28;135285;-63
2022/05/02 10:52:45;;;;;;;;;;;;;;;;;;4979540;28;115717;-65
2022/05/02 10:55:12;;;;;;;;;;;;;;;;;;4973861;28;137404;-64
2022/05/02 10:57:38;;;;;;;;;;;;;;;;;;4978254;28;136872;-64
2022/05/02 11:00:06;;;;;;;;;;;;;;;;;;4977638;28;130298;-65
2022/05/02 11:02:32;;;;;;;;;;;;;;;;;;4979057;28;136745;-63
2022/05/02 11:04:58;;;;;;;;;;;;;;;;;;4976178;28;135745;-64
2022/05/02 11:07:25;;;;;;;;;;;;;;;;;;4978709;28;125375;-65
2022/05/02 11:09:51;;;;;;;;;;;;;;;;;;4972248;28;137078;-65
2022/05/02 11:12:17;;;;;;;;;;;;;;;;;;4980101;28;128945;-65
2022/05/02 11:14:44;;;;;;;;;;;;;;;;;;4982760;28;126861;-64
2022/05/02 11:17:10;;;;;;;;;;;;;;;;;;4981305;28;126459;-63
2022/05/02 11:22:21;;;;;;;;;;;;;;;;;;4966861;28;136688;-65
2022/05/02 11:24:49;;;;;;;;;;;;;;;;;;4970820;28;107372;-64
2022/05/02 11:27:15;;;;;;;;;;;;;;;;;;4975193;28;129670;-64
2022/05/02 11:29:41;;;;;;;;;;;;;;;;;;4986444;28;107145;-64
2022/05/02 11:32:08;;;;;;;;;;;;;;;;;;4983849;28;126318;-65
2022/05/02 11:34:34;;;;;;;;;;;;;;;;;;4981598;28;136417;-64
2022/05/02 11:37:00;;;;;;;;;;;;;;;;;;4981451;28;138279;-64
2022/05/02 11:39:27;;;;;;;;;;;;;;;;;;4983070;28;128706;-64
2022/05/02 11:41:53;;;;;;;;;;;;;;;;;;4978685;28;135100;-64
2022/05/02 11:44:20;;;;;;;;;;;;;;;;;;4987363;28;107843;-63
2022/05/02 11:46:46;;;;;;;;;;;;;;;;;;4979907;28;130211;-63
2022/05/02 11:49:13;;;;;;;;;;;;;;;;;;4980939;28;137297;-63
2022/05/02 11:51:40;;;;;;;;;;;;;;;;;;4971580;28;106831;-63
2022/05/02 11:54:06;;;;;;;;;;;;;;;;;;4973772;28;135998;-64
2022/05/02 11:56:32;;;;;;;;;;;;;;;;;;4974436;28;121292;-64
2022/05/02 11:58:58;;;;;;;;;;;;;;;;;;4971994;28;127465;-63
2022/05/02 12:01:25;;;;;;;;;;;;;;;;;;4982859;28;136534;-63
2022/05/02 12:03:53;;;;;;;;;;;;;;;;;;4981330;28;108542;-63
2022/05/02 12:06:19;;;;;;;;;;;;;;;;;;4973870;28;128597;-63
2022/05/02 12:08:48;;;;;;;;;;;;;;;;;;4973122;28;137416;-64
2022/05/02 12:11:15;;;;;;;;;;;;;;;;;;4982073;28;127361;-64
2022/05/02 12:13:44;;;;;;;;;;;;;;;;;;4980730;28;127486;-63
2022/05/02 12:16:10;;;;;;;;;;;;;;;;;;4976367;28;135958;-64
2022/05/02 12:18:37;;;;;;;;;;;;;;;;;;4978039;28;120576;-64
2022/05/02 12:21:04;;;;;;;;;;;;;;;;;;4988521;28;116493;-64
2022/05/02 12:23:36;;;;;;;;;;;;;;;;;;4980329;28;111871;-64
2022/05/02 12:26:05;;;;;;;;;;;;;;;;;;4983368;28;115048;-64
2022/05/02 12:28:31;;;;;;;;;;;;;;;;;;4989954;28;121165;-64
2022/05/02 12:30:57;;;;;;;;;;;;;;;;;;4983391;28;136851;-64
2022/05/02 12:33:24;;;;;;;;;;;;;;;;;;4969728;28;129278;-64
2022/05/02 12:35:50;;;;;;;;;;;;;;;;;;4985405;28;134896;-64
2022/05/02 12:38:16;;;;;;;;;;;;;;;;;;4977112;28;118981;-64
2022/05/02 12:40:43;;;;;;;;;;;;;;;;;;4976091;28;135516;-64
2022/05/02 12:43:09;;;;;;;;;;;;;;;;;;4985642;28;136953;-65
2022/05/02 12:45:36;;;;;;;;;;;;;;;;;;4987342;28;130190;-65
2022/05/02 12:48:02;;;;;;;;;;;;;;;;;;4976987;28;137382;-66
2022/05/02 12:50:28;;;;;;;;;;;;;;;;;;4979933;28;137256;-64
2022/05/02 12:52:55;;;;;;;;;;;;;;;;;;4985178;28;124596;-63
2022/05/02 12:55:22;;;;;;;;;;;;;;;;;;4977044;28;128019;-65
2022/05/02 13:00:33;;;;;;;;;;;;;;;;;;4968513;28;123269;-65
2022/05/02 13:02:59;;;;;;;;;;;;;;;;;;4980689;28;138145;-65
2022/05/02 13:05:26;;;;;;;;;;;;;;;;;;4981334;28;119691;-66
2022/05/02 13:07:52;;;;;;;;;;;;;;;;;;4985073;28;137504;-65
2022/05/02 13:10:18;;;;;;;;;;;;;;;;;;4981183;28;137300;-65
2022/05/02 13:12:45;;;;;;;;;;;;;;;;;;4978275;28;129292;-65
2022/05/02 13:15:15;;;;;;;;;;;;;;;;;;4970441;28;126021;-65
2022/05/02 13:17:42;;;;;;;;;;;;;;;;;;4983758;28;138286;-65
2022/05/02 13:20:08;;;;;;;;;;;;;;;;;;4983848;28;136788;-66
2022/05/02 13:22:35;;;;;;;;;;;;;;;;;;4979700;28;137207;-67
2022/05/02 13:25:03;;;;;;;;;;;;;;;;;;4979776;28;129044;-66
2022/05/02 13:27:29;;;;;;;;;;;;;;;;;;4986225;28;106869;-67
2022/05/02 13:29:55;;;;;;;;;;;;;;;;;;4986939;28;136696;-68
2022/05/02 13:32:22;;;;;;;;;;;;;;;;;;4980287;28;115967;-70
2022/05/02 13:34:51;;;;;;;;;;;;;;;;;;4981845;28;136892;-68
2022/05/02 13:37:17;;;;;;;;;;;;;;;;;;4972543;28;108836;-68
2022/05/02 13:39:44;;;;;;;;;;;;;;;;;;4989236;28;106644;-66
2022/05/02 13:42:10;;;;;;;;;;;;;;;;;;4981338;28;135782;-66
2022/05/02 13:44:37;;;;;;;;;;;;;;;;;;4985895;28;128675;-67
2022/05/02 13:47:03;;;;;;;;;;;;;;;;;;4987847;28;137484;-66
2022/05/02 13:49:31;;;;;;;;;;;;;;;;;;4978684;28;138653;-67
2022/05/02 13:51:57;;;;;;;;;;;;;;;;;;4985091;28;129911;-67
2022/05/02 13:54:23;;;;;;;;;;;;;;;;;;4967727;28;137920;-66
2022/05/02 13:56:50;;;;;;;;;;;;;;;;;;4968217;28;137932;-66
2022/05/02 13:59:16;;;;;;;;;;;;;;;;;;4974323;28;129553;-67
2022/05/02 14:01:43;;;;;;;;;;;;;;;;;;4990937;28;136278;-67
2022/05/02 14:04:17;;;;;;;;;;;;;;;;;;4981263;28;129664;-67
2022/05/02 14:07:02;;;;;;;;;;;;;;;;;;4985120;28;137638;-68
2022/05/02 14:09:33;;;;;;;;;;;;;;;;;;4987649;28;127272;-66
2022/05/02 14:11:59;;;;;;;;;;;;;;;;;;4983199;28;105938;-66
2022/05/02 14:14:25;;;;;;;;;;;;;;;;;;4973116;28;134764;-66
2022/05/02 14:16:54;;;;;;;;;;;;;;;;;;4983540;28;137257;-66
2022/05/02 14:19:21;;;;;;;;;;;;;;;;;;4978598;28;130600;-66
2022/05/02 14:21:50;;;;;;;;;;;;;;;;;;4981270;28;135340;-66
2022/05/02 14:24:16;;;;;;;;;;;;;;;;;;4990115;28;136133;-66
2022/05/02 14:26:43;;;;;;;;;;;;;;;;;;4983859;28;135651;-66
2022/05/02 14:29:09;;;;;;;;;;;;;;;;;;4985955;28;136825;-65
2022/05/02 14:31:36;;;;;;;;;;;;;;;;;;4980282;28;124301;-68
2022/05/02 14:34:04;;;;;;;;;;;;;;;;;;4987104;28;137297;-65
2022/05/02 14:36:30;;;;;;;;;;;;;;;;;;4983724;27;134056;-66
2022/05/02 14:38:56;;;;;;;;;;;;;;;;;;4977559;27;123513;-70
2022/05/02 14:41:23;;;;;;;;;;;;;;;;;;4974122;28;135333;-68
2022/05/02 14:43:49;;;;;;;;;;;;;;;;;;4982995;28;107434;-68
2022/05/02 14:46:20;;;;;;;;;;;;;;;;;;4988697;28;106543;-68
2022/05/02 14:48:46;;;;;;;;;;;;;;;;;;4982423;28;137358;-70
2022/05/02 14:51:13;;;;;;;;;;;;;;;;;;4983452;28;127330;-72
2022/05/02 14:53:39;;;;;;;;;;;;;;;;;;4983418;27;135558;-70
2022/05/02 14:56:05;;;;;;;;;;;;;;;;;;4982843;28;137327;-70
2022/05/02 14:58:32;;;;;;;;;;;;;;;;;;4979944;27;106767;-70
2022/05/02 15:01:04;;;;;;;;;;;;;;;;;;4980266;28;133364;-70
2022/05/02 15:03:31;;;;;;;;;;;;;;;;;;4984624;28;135496;-70
2022/05/02 15:05:58;;;;;;;;;;;;;;;;;;4985041;28;120722;-70
2022/05/02 15:08:24;;;;;;;;;;;;;;;;;;4982129;28;137105;-67
2022/05/02 15:10:50;;;;;;;;;;;;;;;;;;4977510;28;106264;-70
2022/05/02 15:13:17;;;;;;;;;;;;;;;;;;4977147;28;128900;-70
2022/05/02 15:15:46;;;;;;;;;;;;;;;;;;4981970;28;135549;-71
2022/05/02 15:18:16;;;;;;;;;;;;;;;;;;4996292;28;128192;-70
2022/05/02 15:20:43;;;;;;;;;;;;;;;;;;4980631;28;122279;-70
2022/05/02 15:23:11;;;;;;;;;;;;;;;;;;4975762;28;107504;-71
2022/05/02 15:25:37;;;;;;;;;;;;;;;;;;4976947;28;127669;-70
2022/05/02 15:39:04;;;;;;;;;;;;;;;;;;4986094;28;128017;-71
2022/05/02 15:41:30;;;;;;;;;;;;;;;;;;4984670;28;135215;-70
2022/05/02 15:43:57;;;;;;;;;;;;;;;;;;4990418;27;118590;-68
2022/05/02 15:46:23;;;;;;;;;;;;;;;;;;4977973;28;128110;-70
2022/05/02 15:48:50;;;;;;;;;;;;;;;;;;4980027;28;136062;-71
2022/05/02 15:51:16;;;;;;;;;;;;;;;;;;4989169;28;138076;-71
2022/05/02 15:53:43;;;;;;;;;;;;;;;;;;4984037;28;135772;-71
2022/05/02 15:56:09;;;;;;;;;;;;;;;;;;4986209;28;137066;-70
2022/05/02 15:58:35;;;;;;;;;;;;;;;;;;4988469;27;129888;-69
2022/05/02 16:01:10;;;;;;;;;;;;;;;;;;4987415;28;137223;-70
2022/05/02 16:03:37;;;;;;;;;;;;;;;;;;4981478;27;135497;-71
2022/05/02 16:06:04;;;;;;;;;;;;;;;;;;4979803;28;127969;-70
2022/05/02 16:11:15;;;;;;;;;;;;;;;;;;4979262;28;123651;-72
2022/05/02 16:13:42;;;;;;;;;;;;;;;;;;4985556;28;129155;-69
2022/05/02 16:16:09;;;;;;;;;;;;;;;;;;4978613;28;115383;-70
2022/05/02 16:18:36;;;;;;;;;;;;;;;;;;4986292;28;129210;-71
2022/05/02 16:21:02;;;;;;;;;;;;;;;;;;4988755;28;129247;-67
2022/05/02 16:23:28;;;;;;;;;;;;;;;;;;4986179;27;133944;-68
2022/05/02 16:25:55;;;;;;;;;;;;;;;;;;4982327;28;118864;-68
2022/05/02 16:28:21;;;;;;;;;;;;;;;;;;4983518;28;130137;-67
2022/05/02 16:30:47;;;;;;;;;;;;;;;;;;4983024;28;137934;-66
2022/05/02 16:33:14;;;;;;;;;;;;;;;;;;4975190;28;127976;-70
2022/05/02 16:35:40;;;;;;;;;;;;;;;;;;4989351;28;117433;-71
2022/05/02 16:38:09;;;;;;;;;;;;;;;;;;4982468;28;107307;-69
2022/05/02 16:40:36;;;;;;;;;;;;;;;;;;4985971;28;138128;-69
2022/05/02 16:43:02;;;;;;;;;;;;;;;;;;4987718;28;137515;-68
2022/05/02 16:45:29;;;;;;;;;;;;;;;;;;4986644;28;106248;-71
2022/05/02 16:47:56;;;;;;;;;;;;;;;;;;4984297;27;137350;-68
2022/05/02 16:50:22;;;;;;;;;;;;;;;;;;4984799;28;137751;-67
2022/05/02 16:52:49;;;;;;;;;;;;;;;;;;4976406;28;107005;-67
2022/05/02 16:55:15;;;;;;;;;;;;;;;;;;4981586;28;137219;-67
2022/05/02 16:57:41;;;;;;;;;;;;;;;;;;4990583;28;137758;-67
2022/05/02 17:00:08;;;;;;;;;;;;;;;;;;4987500;28;135302;-66
2022/05/02 17:02:35;;;;;;;;;;;;;;;;;;4981098;28;137101;-66
2022/05/02 17:05:03;;;;;;;;;;;;;;;;;;4988650;28;110683;-67
2022/05/02 17:07:30;;;;;;;;;;;;;;;;;;4982977;28;126626;-67
2022/05/02 17:09:56;;;;;;;;;;;;;;;;;;4984388;27;132276;-67